Es Castell, Spain
Current Conditions -  °F | °C
As of 2:00 PM on Wednesday 22 Oct 2014 (Local Time) from LEMH Reporting Station
Few Clouds Few Clouds  
Wind Chill: 68°   Ceiling: Unl
Heat Index: 68°   Visibility: 6mi
Dew Point: 39°   Wind: 36mph
Humidity: 35%   Direction: 10°N
Pressure: 30.18"   Gusts: 49mph
Location:  39.88°N, 4.29°E
Report Text: LEMH 221200Z 01031G43KT 9999 FEW025 20/04 Q1022
Loading
Personal Weather Stations






























Interactive Weather Map
Tropical Storm Tracking
New forecast layout! Learn more

10-Day Weather Forecast

Advertisements
Track Severe Weather on mobile